Elmora, Pennsylvania
Current Conditions -  °F | °C
As of 9:35 PM on Saturday 25 Oct 2014 (Local Time) from KIDI Reporting Station
Overcast Overcast  
Wind Chill: 61°   Ceiling: 4700
Heat Index: 61°   Visibility: 10mi
Dew Point: 52°   Wind: 14mph
Humidity: 72%   Direction: 260°W
Pressure: 29.76"   Gusts: NA
Location:  40.6°N, 78.75°W
Report Text: KIDI 260135Z AUTO 26012KT 10SM SCT034 BKN047 OVC060 16/11 A2976 RMK A01
Loading
Personal Weather Stations






























Interactive Weather Map New forecast layout! Learn more

10-Day Weather Forecast

Advertisements
Track Severe Weather on mobile